Time;durP1;ratioP1;P1;durP2;ratioP2;P2;SDS_P1;SDS_P2;PMS_P1;PMS_P2;Temp;Humidity;BMP_temperature;BMP_pressure;BME280_temperature;BME280_humidity;BME280_pressure;Samples;Min_cycle;Max_cycle;Signal;HPM_P1;HPM_P2
2022/03/19 00:05:09;;;;;;;37.13;16.87;;;;;;;4.84;36.99;101537.78;4416047;80;44486;-86
2022/03/19 00:11:11;;;;;;;49.73;17.25;;;;;;;4.85;36.87;101536.83;4358554;80;43770;-86
2022/03/19 00:17:12;;;;;;;43.95;17.77;;;;;;;4.73;36.89;101528.05;4353978;80;43639;-85
2022/03/19 00:23:15;;;;;;;47.45;18.12;;;;;;;4.60;36.96;101525.11;4325694;80;43798;-88
2022/03/19 00:29:16;;;;;;;40.03;15.88;;;;;;;4.80;36.44;101523.89;4383054;80;44415;-86
2022/03/19 00:35:18;;;;;;;42.78;17.23;;;;;;;4.84;36.38;101521.31;4386915;80;44493;-85
2022/03/19 00:41:21;;;;;;;47.05;18.12;;;;;;;4.71;36.10;101519.34;4387767;80;43728;-85
2022/03/19 00:47:23;;;;;;;49.15;19.35;;;;;;;4.55;36.96;101525.97;4396887;80;43752;-86
2022/03/19 00:53:24;;;;;;;44.67;18.50;;;;;;;4.32;37.14;101518.11;4395378;80;43736;-87
2022/03/19 00:59:25;;;;;;;41.25;18.00;;;;;;;4.39;36.88;101506.95;4394787;80;44499;-87
2022/03/19 01:05:27;;;;;;;44.67;18.20;;;;;;;4.30;37.25;101506.74;4396563;80;43798;-82
2022/03/19 01:11:28;;;;;;;42.00;17.90;;;;;;;4.18;37.44;101493.12;4327480;80;44421;-80
2022/03/19 01:17:29;;;;;;;45.12;19.05;;;;;;;4.02;37.74;101490.40;4344383;80;43741;-79
2022/03/19 01:23:31;;;;;;;44.13;17.80;;;;;;;3.89;38.26;101493.23;4345127;80;43808;-79
2022/03/19 01:29:34;;;;;;;42.73;17.75;;;;;;;4.14;37.87;101493.88;4373619;81;42893;-79
2022/03/19 01:35:35;;;;;;;42.70;18.05;;;;;;;3.95;37.89;101491.88;4371273;80;43315;-83
2022/03/19 01:41:42;;;;;;;44.30;18.30;;;;;;;3.84;37.64;101482.13;4350078;80;43753;-81
2022/03/19 01:47:44;;;;;;;45.83;18.67;;;;;;;3.69;38.08;101489.55;4458512;78;43739;-79
2022/03/19 01:53:45;;;;;;;43.73;17.90;;;;;;;3.65;37.87;101485.94;4348745;81;43312;-79
2022/03/19 01:59:48;;;;;;;45.12;19.10;;;;;;;3.48;38.40;101477.03;4364025;81;43730;-84
2022/03/19 02:05:49;;;;;;;45.80;17.95;;;;;;;3.46;38.34;101474.98;4333733;81;43784;-83
2022/03/19 02:11:51;;;;;;;45.55;18.98;;;;;;;3.35;38.40;101475.84;4376198;81;43772;-84
2022/03/19 02:17:53;;;;;;;46.10;19.42;;;;;;;3.50;38.17;101472.92;4361849;81;43737;-86
2022/03/19 02:30:19;;;;;;;43.30;19.77;;;;;;;3.21;38.83;101478.27;4474885;78;28488;-85
2022/03/19 02:36:22;;;;;;;40.10;17.73;;;;;;;3.13;39.46;101474.54;4455528;78;44465;-83
2022/03/19 02:42:23;;;;;;;44.85;19.07;;;;;;;2.95;40.53;101470.20;4433459;78;43830;-84
2022/03/19 02:48:24;;;;;;;55.88;21.33;;;;;;;3.39;39.83;101476.44;4453375;78;44122;-82
2022/03/19 02:54:29;;;;;;;54.15;21.93;;;;;;;3.19;39.79;101470.91;4376868;81;44099;-82
2022/03/19 03:00:33;;;;;;;44.83;18.48;;;;;;;2.97;40.27;101475.77;4386904;81;43725;-82
2022/03/19 03:06:37;;;;;;;54.95;20.57;;;;;;;3.17;39.92;101479.49;4344072;81;44106;-81
2022/03/19 03:12:38;;;;;;;50.73;20.05;;;;;;;3.23;38.51;101478.63;4382178;81;43552;-80
2022/03/19 03:18:40;;;;;;;53.50;21.35;;;;;;;3.38;38.28;101485.86;4380490;81;44072;-81
2022/03/19 03:24:41;;;;;;;63.78;24.02;;;;;;;3.28;38.47;101480.45;4435803;80;43841;-81
2022/03/19 03:30:43;;;;;;;55.48;21.68;;;;;;;3.46;37.98;101476.31;4474415;80;44203;-80
2022/03/19 03:36:44;;;;;;;48.75;21.48;;;;;;;3.45;38.38;101469.78;4463362;78;44465;-84
2022/03/19 03:42:46;;;;;;;52.83;21.48;;;;;;;3.08;39.34;101472.75;4446220;78;44130;-83
2022/03/19 03:48:48;;;;;;;53.85;21.90;;;;;;;3.18;39.38;101481.18;4452277;78;44087;-81
2022/03/19 03:54:49;;;;;;;54.35;20.43;;;;;;;3.15;39.41;101478.78;4359546;80;44142;-83
2022/03/19 04:00:52;;;;;;;46.88;20.20;;;;;;;3.00;39.68;101477.31;4369989;80;43710;-83
2022/03/19 04:06:53;;;;;;;44.65;19.73;;;;;;;2.95;39.99;101469.70;4422222;80;43713;-86
2022/03/19 04:12:55;;;;;;;54.18;21.95;;;;;;;2.90;39.86;101468.73;4403752;80;44170;-85
2022/03/19 04:18:56;;;;;;;51.53;21.75;;;;;;;2.71;40.30;101482.62;4404642;79;43721;-83
2022/03/19 04:24:57;;;;;;;51.58;21.00;;;;;;;2.59;40.53;101484.41;4388833;80;43587;-82
2022/03/19 04:30:58;;;;;;;52.67;22.07;;;;;;;2.63;40.67;101485.89;4407044;80;44111;-81
2022/03/19 04:37:00;;;;;;;47.45;19.90;;;;;;;2.60;40.94;101487.93;4422764;80;43853;-84
2022/03/19 04:43:02;;;;;;;53.75;21.75;;;;;;;2.66;40.58;101494.11;4409645;79;44095;-84
2022/03/19 04:49:04;;;;;;;54.10;22.67;;;;;;;2.48;41.20;101498.53;4428900;79;44102;-82
2022/03/19 04:55:09;;;;;;;60.55;23.35;;;;;;;2.43;41.55;101511.30;4399597;79;43537;-83
2022/03/19 05:01:11;;;;;;;47.78;20.15;;;;;;;2.41;41.46;101515.89;4387026;79;43752;-82
2022/03/19 05:07:12;;;;;;;53.38;22.15;;;;;;;2.40;41.55;101507.56;4384024;79;44154;-83
2022/03/19 05:13:15;;;;;;;50.48;20.65;;;;;;;2.46;41.54;101515.07;4381166;81;44022;-81
2022/03/19 05:19:19;;;;;;;52.08;21.20;;;;;;;2.43;41.88;101519.77;4360597;79;43720;-84
2022/03/19 05:25:21;;;;;;;53.13;22.30;;;;;;;2.43;41.58;101514.45;4373807;79;28546;-77
2022/03/19 05:31:23;;;;;;;47.25;21.42;;;;;;;2.68;40.98;101517.87;4381754;79;43756;-77
2022/03/19 05:37:24;;;;;;;54.58;21.48;;;;;;;2.60;41.40;101527.30;4403075;79;44119;-77
2022/03/19 05:43:25;;;;;;;48.78;20.48;;;;;;;2.84;41.01;101534.80;4371470;79;43802;-79
2022/03/19 05:49:29;;;;;;;43.25;18.85;;;;;;;2.80;40.90;101546.16;4379856;79;43731;-80
2022/03/19 05:55:30;;;;;;;48.65;20.45;;;;;;;2.78;41.12;101555.59;4354734;80;43759;-81
2022/03/19 06:01:32;;;;;;;46.80;20.88;;;;;;;3.14;40.74;101548.00;4345932;80;43748;-80
2022/03/19 06:07:34;;;;;;;52.27;21.25;;;;;;;3.59;40.17;101546.67;4357572;80;43603;-79
2022/03/19 06:13:35;;;;;;;47.85;20.80;;;;;;;3.52;40.22;101555.24;4356956;80;43762;-77
2022/03/19 06:19:36;;;;;;;52.70;21.05;;;;;;;3.74;39.79;101559.69;4360394;80;44072;-79
2022/03/19 06:25:39;;;;;;;45.55;19.12;;;;;;;3.64;40.00;101559.57;4351140;80;43805;-78
2022/03/19 06:31:41;;;;;;;37.85;16.37;;;;;;;3.52;40.11;101560.09;4355605;80;44478;-79
2022/03/19 06:37:42;;;;;;;47.75;19.57;;;;;;;3.67;39.87;101567.80;4343357;80;43790;-76
2022/03/19 06:43:44;;;;;;;53.85;21.05;;;;;;;3.86;40.24;101570.67;4349363;80;44123;-78
2022/03/19 06:49:45;;;;;;;50.30;20.68;;;;;;;3.81;40.18;101574.67;4327952;80;44496;-78
2022/03/19 06:55:46;;;;;;;43.65;19.85;;;;;;;4.10;39.78;101573.63;4336986;82;43776;-76
2022/03/19 07:01:48;;;;;;;49.23;20.48;;;;;;;4.52;39.25;101573.34;4309722;82;44466;-79
2022/03/19 07:07:50;;;;;;;54.53;21.48;;;;;;;4.52;39.00;101568.87;4326269;82;44105;-77
2022/03/19 07:13:54;;;;;;;46.63;21.80;;;;;;;4.79;38.48;101566.66;4328401;82;43831;-78
2022/03/19 07:19:55;;;;;;;53.33;22.52;;;;;;;4.68;39.13;101568.42;4330851;81;44111;-78
2022/03/19 07:26:01;;;;;;;52.17;22.35;;;;;;;4.92;38.93;101565.14;4334336;82;43981;-78
2022/03/19 07:32:03;;;;;;;53.75;23.57;;;;;;;5.21;38.52;101562.61;4332755;82;44106;-76
2022/03/19 07:38:06;;;;;;;45.35;21.15;;;;;;;4.92;37.76;101570.47;4324729;80;43754;-81
2022/03/19 07:44:07;;;;;;;47.60;21.62;;;;;;;5.29;37.40;101558.79;4341431;80;44201;-77
2022/03/19 07:50:11;;;;;;;45.20;19.90;;;;;;;5.47;37.33;101567.50;4356035;80;43802;-77
2022/03/19 07:56:12;;;;;;;40.48;18.15;;;;;;;5.53;36.94;101564.27;4369236;80;44472;-78
2022/03/19 08:02:13;;;;;;;40.70;19.05;;;;;;;5.86;36.59;101569.42;4344836;80;44452;-77
2022/03/19 08:08:15;;;;;;;33.98;16.67;;;;;;;5.60;36.56;101573.08;4350903;80;44170;-77
2022/03/19 08:14:18;;;;;;;36.00;16.02;;;;;;;6.28;35.65;101567.88;4353477;80;44414;-78
2022/03/19 08:20:20;;;;;;;33.70;16.07;;;;;;;6.18;35.35;101567.03;4349206;80;28529;-86
2022/03/19 08:26:21;;;;;;;34.98;15.98;;;;;;;6.39;35.33;101568.72;4362135;80;28537;-82
2022/03/19 08:32:22;;;;;;;31.75;15.30;;;;;;;6.28;35.05;101575.03;4363608;80;28497;-81
2022/03/19 08:44:44;;;;;;;26.12;13.00;;;;;;;6.88;33.98;101559.30;4344791;80;28554;-80
2022/03/19 08:50:46;;;;;;;27.73;13.72;;;;;;;7.50;33.47;101560.13;4353321;80;28498;-79
2022/03/19 08:56:51;;;;;;;25.72;11.90;;;;;;;7.39;32.43;101567.87;4359898;80;28543;-81
2022/03/19 09:02:52;;;;;;;22.77;11.78;;;;;;;7.48;32.56;101560.77;4338133;80;28546;-79
2022/03/19 09:08:54;;;;;;;22.40;10.90;;;;;;;8.04;31.97;101558.03;4348764;80;28517;-83
2022/03/19 09:14:55;;;;;;;28.10;13.28;;;;;;;8.05;31.15;101563.73;4358553;80;28542;-79
2022/03/19 09:20:58;;;;;;;24.37;11.73;;;;;;;7.73;31.15;101555.70;4357380;80;28541;-79
2022/03/19 09:27:00;;;;;;;28.50;12.75;;;;;;;7.87;31.01;101550.84;4367038;80;28532;-78
2022/03/19 09:33:02;;;;;;;25.57;12.85;;;;;;;8.55;30.04;101559.36;4351133;80;28505;-79
2022/03/19 09:39:04;;;;;;;27.73;11.95;;;;;;;8.79;29.90;101560.02;4371398;80;28530;-81
2022/03/19 09:45:06;;;;;;;23.65;12.05;;;;;;;8.56;29.25;101559.19;4366795;80;28551;-79
2022/03/19 09:51:11;;;;;;;26.57;11.70;;;;;;;8.52;29.18;101557.83;4350307;80;28444;-84
2022/03/19 09:57:15;;;;;;;26.27;13.13;;;;;;;9.06;28.90;101552.81;4355565;80;28506;-79
2022/03/19 10:03:22;;;;;;;24.65;11.63;;;;;;;8.61;28.61;101554.70;4358692;80;28496;-80
2022/03/19 10:09:22;;;;;;;20.43;10.98;;;;;;;9.12;28.43;101548.66;4349969;80;28509;-80
2022/03/19 10:15:23;;;;;;;22.37;11.63;;;;;;;8.97;27.71;101549.74;4355116;80;28559;-80
2022/03/19 10:21:28;;;;;;;20.62;10.18;;;;;;;9.12;27.05;101540.12;4353732;80;28537;-79
2022/03/19 10:27:35;;;;;;;19.65;10.45;;;;;;;9.69;26.77;101537.30;4358320;80;28510;-79
2022/03/19 10:33:37;;;;;;;22.27;10.63;;;;;;;10.32;25.76;101539.59;4366684;80;28518;-79
2022/03/19 10:39:42;;;;;;;18.77;9.98;;;;;;;9.94;25.31;101533.31;4356081;80;28529;-81
2022/03/19 10:45:48;;;;;;;19.77;9.35;;;;;;;10.00;24.37;101529.98;4340203;81;28533;-79
2022/03/19 10:51:56;;;;;;;18.02;8.88;;;;;;;10.49;24.71;101532.39;4326627;80;28484;-76
2022/03/19 10:57:58;;;;;;;14.25;7.33;;;;;;;10.43;23.89;101519.61;4349730;80;28519;-79
2022/03/19 11:04:01;;;;;;;15.25;7.70;;;;;;;10.76;23.53;101520.08;4341581;80;28468;-80
2022/03/19 11:10:06;;;;;;;13.85;6.70;;;;;;;10.93;23.34;101527.61;4343694;80;28578;-78
2022/03/19 11:16:11;;;;;;;13.18;6.67;;;;;;;11.32;22.90;101501.23;4340059;82;28511;-74
2022/03/19 11:22:13;;;;;;;16.07;7.78;;;;;;;10.86;22.51;101510.79;4326669;80;28535;-74
2022/03/19 11:28:15;;;;;;;13.08;6.28;;;;;;;11.47;22.17;101481.61;4340835;80;28550;-77
2022/03/19 11:34:18;;;;;;;16.65;7.22;;;;;;;11.51;22.96;101483.78;4341294;80;28514;-75
2022/03/19 11:40:28;;;;;;;13.43;7.08;;;;;;;11.85;22.33;101479.84;4349596;80;28578;-77
2022/03/19 11:46:37;;;;;;;17.12;8.38;;;;;;;11.86;21.77;101474.78;4361228;80;28525;-74
2022/03/19 11:52:56;;;;;;;14.47;7.22;;;;;;;11.35;22.17;101473.94;4343924;81;28473;-76
2022/03/19 11:58:58;;;;;;;14.95;7.28;;;;;;;13.96;20.19;101466.38;4463243;78;28548;-82
2022/03/19 12:05:06;;;;;;;14.30;7.40;;;;;;;13.56;20.13;101461.38;4416049;80;28456;-81
2022/03/19 12:11:14;;;;;;;14.10;8.53;;;;;;;14.01;20.58;101450.91;4417732;79;28493;-80
2022/03/19 12:17:23;;;;;;;17.00;8.98;;;;;;;13.78;20.49;101460.89;4394856;79;28504;-83
2022/03/19 12:23:27;;;;;;;14.47;7.80;;;;;;;14.11;21.31;101458.19;4444900;80;28517;-81
2022/03/19 12:29:32;;;;;;;;;;;;;;;13.98;21.53;101451.28;4434163;80;28524;-81
2022/03/19 12:35:43;;;;;;;16.05;8.68;;;;;;;13.60;20.29;101449.67;4440545;80;20196;-82
2022/03/19 12:41:45;;;;;;;15.03;8.28;;;;;;;13.90;20.48;101459.88;4434565;80;28539;-82
2022/03/19 12:47:51;;;;;;;17.23;7.80;;;;;;;13.71;20.04;101465.92;4372417;79;28501;-85
2022/03/19 12:53:52;;;;;;;16.20;7.95;;;;;;;13.46;20.60;101436.03;4390057;79;28507;-83
2022/03/19 12:59:57;;;;;;;15.70;6.80;;;;;;;13.36;20.51;101448.45;4381168;79;28584;-83
2022/03/19 13:05:59;;;;;;;15.05;7.37;;;;;;;13.66;20.04;101446.22;4380053;79;28469;-80
2022/03/19 13:12:04;;;;;;;12.78;6.70;;;;;;;13.61;20.05;101445.95;4378721;81;28513;-81
2022/03/19 13:18:08;;;;;;;13.10;6.78;;;;;;;13.82;19.77;101442.92;4378408;79;28504;-80
2022/03/19 13:24:12;;;;;;;15.30;7.20;;;;;;;13.73;19.47;101453.04;4375466;79;28493;-80
2022/03/19 13:30:14;;;;;;;14.83;7.60;;;;;;;13.57;19.59;101433.85;4350426;79;28531;-80
2022/03/19 13:36:20;;;;;;;14.00;6.50;;;;;;;13.72;19.64;101438.67;4370850;80;28479;-78
2022/03/19 13:42:32;;;;;;;12.85;5.85;;;;;;;13.21;19.11;101443.61;4393281;79;28513;-81
2022/03/19 13:48:33;;;;;;;12.23;5.42;;;;;;;13.30;19.31;101440.27;4374340;81;28529;-77
2022/03/19 13:54:46;;;;;;;11.38;5.65;;;;;;;13.18;18.31;101440.77;4376278;80;28539;-78
2022/03/19 14:00:47;;;;;;;7.20;4.33;;;;;;;13.96;17.71;101436.63;4386882;79;28535;-78
2022/03/19 14:06:50;;;;;;;11.53;5.47;;;;;;;13.85;17.44;101439.82;4401800;79;28540;-78
2022/03/19 14:13:06;;;;;;;10.45;5.75;;;;;;;14.29;18.00;101436.05;4407279;79;28540;-78
2022/03/19 14:19:09;;;;;;;10.13;5.47;;;;;;;13.26;18.29;101412.80;4394136;79;28501;-79
2022/03/19 14:25:11;;;;;;;13.35;6.22;;;;;;;13.26;18.29;101412.80;4387296;79;28520;-78
2022/03/19 14:31:13;;;;;;;11.95;5.70;;;;;;;13.42;18.70;101441.45;4385734;79;28520;-76
2022/03/19 14:37:15;;;;;;;12.03;6.72;;;;;;;11.14;20.85;101463.75;4378089;79;28509;-78
2022/03/19 14:43:18;;;;;;;8.40;4.78;;;;;;;10.77;20.77;101461.22;4382483;79;28509;-79
2022/03/19 14:49:19;;;;;;;11.08;5.67;;;;;;;10.26;20.84;101458.25;4424101;80;28462;-79
2022/03/19 14:55:23;;;;;;;10.15;5.05;;;;;;;10.46;21.28;101459.59;4425238;80;28540;-78
2022/03/19 15:01:24;;;;;;;8.63;4.58;;;;;;;10.23;20.63;101459.42;4434890;80;28521;-78
2022/03/19 15:07:28;;;;;;;9.50;3.83;;;;;;;10.56;20.75;101455.89;4419403;80;28518;-77
2022/03/19 15:13:31;;;;;;;10.93;4.55;;;;;;;10.30;20.91;101455.55;4422619;80;28498;-77
2022/03/19 15:19:33;;;;;;;11.38;4.37;;;;;;;10.46;21.13;101445.30;4433220;80;28494;-78
2022/03/19 15:25:36;;;;;;;8.98;3.92;;;;;;;10.30;21.12;101447.48;4423638;80;28528;-78
2022/03/19 15:31:37;;;;;;;7.00;3.87;;;;;;;10.17;20.31;101456.91;4424716;80;28492;-79
2022/03/19 15:37:41;;;;;;;6.70;3.47;;;;;;;10.57;20.16;101462.45;4427499;80;28480;-77
2022/03/19 15:43:42;;;;;;;9.88;3.98;;;;;;;10.63;20.29;101453.34;4418013;80;28599;-77
2022/03/19 15:49:44;;;;;;;9.70;4.33;;;;;;;10.51;20.30;101462.27;4385035;80;28577;-78
2022/03/19 15:55:45;;;;;;;9.25;3.87;;;;;;;10.44;20.65;101460.77;4409615;81;28520;-78
2022/03/19 16:01:48;;;;;;;6.97;4.33;;;;;;;10.17;20.72;101468.17;4379220;81;28470;-79
2022/03/19 16:07:50;;;;;;;7.85;4.08;;;;;;;10.17;20.74;101470.34;4385441;81;28543;-79
2022/03/19 16:13:51;;;;;;;7.87;3.92;;;;;;;10.19;20.68;101470.19;4401993;81;28520;-78
2022/03/19 16:19:52;;;;;;;10.30;4.60;;;;;;;10.14;20.81;101472.03;4407994;80;28485;-77
2022/03/19 16:25:54;;;;;;;11.75;4.50;;;;;;;9.94;21.46;101481.44;4409212;80;28473;-78
2022/03/19 16:31:56;;;;;;;7.33;4.15;;;;;;;10.08;21.72;101484.79;4403664;80;28978;-79
2022/03/19 16:37:58;;;;;;;10.40;4.50;;;;;;;9.93;21.97;101495.36;4390626;80;28667;-78
2022/03/19 16:43:59;;;;;;;10.03;4.97;;;;;;;9.96;22.30;101500.42;4410642;80;28489;-78
2022/03/19 16:50:01;;;;;;;9.10;4.25;;;;;;;10.00;22.78;101503.10;4396411;80;28496;-79
2022/03/19 16:56:02;;;;;;;13.65;5.08;;;;;;;9.47;23.50;101512.73;4381513;79;28481;-79
2022/03/19 17:02:05;;;;;;;11.68;5.40;;;;;;;9.42;23.79;101516.91;4409241;80;28701;-79
2022/03/19 17:08:06;;;;;;;9.53;5.22;;;;;;;9.32;23.87;101519.22;4396974;80;28501;-79
2022/03/19 17:14:11;;;;;;;7.30;4.30;;;;;;;9.35;23.86;101530.14;4390922;80;28533;-81
2022/03/19 17:20:11;;;;;;;10.23;5.60;;;;;;;9.31;23.74;101534.99;4384700;81;28519;-82
2022/03/19 17:26:22;;;;;;;11.57;5.20;;;;;;;9.26;23.63;101541.84;4379849;80;28535;-82
2022/03/19 17:32:30;;;;;;;8.40;4.53;;;;;;;9.10;23.83;101544.78;4396821;80;28505;-80
2022/03/19 17:38:34;;;;;;;8.85;4.90;;;;;;;8.92;24.02;101552.41;4387368;80;28575;-80
2022/03/19 17:44:36;;;;;;;9.68;5.17;;;;;;;9.03;24.01;101559.86;4382050;79;28512;-80
2022/03/19 17:50:37;;;;;;;12.35;5.28;;;;;;;8.95;24.03;101563.82;4327708;81;28493;-79
2022/03/19 17:56:38;;;;;;;13.18;5.75;;;;;;;8.89;24.16;101567.98;4327365;81;28544;-82
2022/03/19 18:02:41;;;;;;;12.23;6.40;;;;;;;8.81;24.18;101570.60;4323904;81;28492;-75
2022/03/19 18:08:42;;;;;;;14.40;6.42;;;;;;;8.61;24.43;101575.66;4323241;81;28521;-77
2022/03/19 18:14:44;;;;;;;13.53;6.47;;;;;;;8.40;24.79;101574.61;4339165;81;28550;-80
2022/03/19 18:20:45;;;;;;;12.33;5.75;;;;;;;8.28;25.09;101572.69;4328920;81;28547;-85
2022/03/19 18:26:48;;;;;;;14.43;6.35;;;;;;;9.35;25.32;101570.42;4325689;81;28494;-84
2022/03/19 18:32:50;;;;;;;17.40;7.65;;;;;;;11.06;23.41;101567.45;4420085;79;28567;-85
2022/03/19 18:38:53;;;;;;;16.10;7.70;;;;;;;8.04;25.47;101570.60;4426300;79;28500;-85
2022/03/19 18:44:56;;;;;;;18.40;7.75;;;;;;;7.55;26.43;101578.42;4421749;79;28497;-84
2022/03/19 18:51:00;;;;;;;17.70;8.45;;;;;;;7.63;26.58;101585.70;4420391;78;28581;-84
2022/03/19 18:57:04;;;;;;;19.85;8.80;;;;;;;7.60;26.82;101595.38;4368508;79;28539;-85
2022/03/19 19:03:05;;;;;;;18.15;8.03;;;;;;;7.41;27.55;101594.47;4361610;79;28501;-79
2022/03/19 19:09:07;;;;;;;20.23;9.13;;;;;;;7.21;27.81;101601.73;4378454;80;28531;-80
2022/03/19 19:15:09;;;;;;;19.12;8.48;;;;;;;7.04;28.29;101612.70;4455791;80;28609;-72
2022/03/19 19:21:13;;;;;;;19.17;9.38;;;;;;;6.98;28.17;101616.28;4384835;79;28481;-81
2022/03/19 19:27:14;;;;;;;19.42;9.38;;;;;;;6.82;28.33;101616.02;4355864;79;28489;-77
2022/03/19 19:33:16;;;;;;;21.68;9.53;;;;;;;6.77;28.37;101626.31;4381050;79;28454;-83
2022/03/19 19:39:18;;;;;;;25.23;10.05;;;;;;;6.83;28.55;101625.75;4372526;79;28501;-77
2022/03/19 19:45:20;;;;;;;23.05;10.63;;;;;;;6.53;29.25;101624.41;4358048;79;28521;-81
2022/03/19 19:51:21;;;;;;;24.95;11.78;;;;;;;6.63;29.44;101628.44;4367202;80;28517;-79
2022/03/19 20:03:42;;;;;;;38.35;16.48;;;;;;;6.30;30.57;101630.55;4358607;80;28512;-75
2022/03/19 20:09:44;;;;;;;33.92;15.63;;;;;;;6.18;31.67;101627.14;4437600;78;28501;-76
2022/03/19 20:15:45;;;;;;;35.03;16.27;;;;;;;6.41;31.45;101623.73;4368317;80;28576;-78
2022/03/19 20:21:47;;;;;;;37.23;16.90;;;;;;;6.42;31.44;101617.88;4391031;78;28534;-73
2022/03/19 20:27:52;;;;;;;34.85;15.78;;;;;;;6.50;31.69;101619.36;4327068;80;28561;-75
2022/03/19 20:33:54;;;;;;;35.85;15.83;;;;;;;6.43;31.95;101627.58;4377917;80;28516;-76
2022/03/19 20:39:55;;;;;;;38.42;16.77;;;;;;;6.26;32.46;101625.96;4368185;80;28521;-84
2022/03/19 20:45:56;;;;;;;37.10;16.30;;;;;;;6.10;32.31;101625.64;4428572;78;28528;-75
2022/03/19 20:51:58;;;;;;;37.78;16.42;;;;;;;5.96;33.15;101624.17;4456060;78;28628;-72
2022/03/19 20:58:02;;;;;;;41.30;16.30;;;;;;;8.68;29.40;101620.13;4461850;78;28512;-74
2022/03/19 21:04:03;;;;;;;37.67;17.25;;;;;;;8.96;28.68;101621.85;4384384;79;28558;-74
2022/03/19 21:10:08;;;;;;;42.05;19.02;;;;;;;8.67;28.77;101618.94;4400962;79;28512;-73
2022/03/19 21:16:10;;;;;;;40.33;17.95;;;;;;;8.30;29.22;101610.03;4398054;79;28556;-74
2022/03/19 21:22:11;;;;;;;41.68;17.50;;;;;;;8.64;28.74;101611.55;4440820;80;28553;-72
2022/03/19 21:28:13;;;;;;;38.17;17.27;;;;;;;8.59;28.60;101618.38;4396461;79;44485;-75
2022/03/19 21:34:14;;;;;;;36.77;17.20;;;;;;;8.53;28.60;101618.98;4400468;79;44473;-73
2022/03/19 21:46:37;;;;;;;34.88;15.45;;;;;;;7.81;28.88;101627.28;4435051;80;44123;-71
2022/03/19 21:52:38;;;;;;;38.28;16.17;;;;;;;7.81;28.70;101621.41;4391707;79;28546;-72
2022/03/19 21:58:41;;;;;;;37.53;15.08;;;;;;;7.71;28.93;101620.62;4388370;79;44469;-74
2022/03/19 22:04:42;;;;;;;30.20;13.45;;;;;;;7.80;28.67;101617.05;4392284;79;28540;-73
2022/03/19 22:10:44;;;;;;;34.58;14.65;;;;;;;8.00;28.35;101616.94;4389538;79;44099;-72
2022/03/19 22:16:45;;;;;;;33.42;14.55;;;;;;;8.09;28.19;101616.52;4395775;79;44099;-72
2022/03/19 22:22:48;;;;;;;32.42;14.00;;;;;;;7.85;28.48;101622.44;4395596;79;44116;-72
2022/03/19 22:28:50;;;;;;;32.95;15.60;;;;;;;8.08;27.91;101618.38;4400601;79;44126;-74
2022/03/19 22:34:52;;;;;;;37.53;14.47;;;;;;;8.04;28.02;101629.55;4400129;79;44466;-72
2022/03/19 22:40:53;;;;;;;33.80;15.35;;;;;;;8.05;28.10;101628.55;4374296;79;28509;-72
2022/03/19 22:47:00;;;;;;;33.45;16.23;;;;;;;7.97;28.32;101631.13;4398274;79;28574;-72
2022/03/19 22:52:58;;;;;;;33.35;15.78;;;;;;;7.87;28.64;101640.58;4372438;79;44105;-74
2022/03/19 22:59:00;;;;;;;35.60;16.07;;;;;;;7.61;29.11;101645.26;4396564;79;44429;-70
2022/03/19 23:05:01;;;;;;;42.83;16.23;;;;;;;7.54;29.23;101638.31;4395090;79;28495;-70
2022/03/19 23:17:26;;;;;;;42.60;17.62;;;;;;;7.35;29.77;101647.27;4399718;79;43689;-72
2022/03/19 23:23:28;;;;;;;40.95;16.80;;;;;;;7.74;29.22;101642.25;4398623;79;28524;-73
2022/03/19 23:29:29;;;;;;;37.63;16.20;;;;;;;7.36;30.04;101645.76;4404327;79;44477;-72
2022/03/19 23:35:36;;;;;;;38.42;17.23;;;;;;;7.44;29.87;101632.98;4448163;78;44567;-73
2022/03/19 23:41:38;;;;;;;37.17;16.17;;;;;;;7.71;29.51;101629.98;4343626;80;44448;-73
2022/03/19 23:47:39;;;;;;;41.05;16.87;;;;;;;7.62;29.68;101629.05;4319100;80;44451;-73
2022/03/19 23:53:41;;;;;;;34.58;16.90;;;;;;;6.18;30.54;101627.62;4370040;80;44444;-72
2022/03/19 23:59:43;;;;;;;43.95;18.87;;;;;;;4.45;34.32;101631.62;4446261;79;43865;-72
